Vicente Lopez, Argentina
Current Conditions -  °F | °C
As of 6:00 PM on Monday 20 Oct 2014 (Local Time) from SABE Reporting Station
Clear Clear  
Wind Chill: 68°   Ceiling: Unl
Heat Index: 68°   Visibility: 6mi
Dew Point: 46°   Wind: 6mph
Humidity: 46%   Direction: 90°E
Pressure: 30.09"   Gusts: NA
Location:  34.53°S, 58.47°W
Report Text: SABE 202100Z 09005KT CAVOK 20/08 Q1019
Loading
Personal Weather Stations






























Interactive Weather Map
Tropical Storm Tracking
New forecast layout! Learn more

10-Day Weather Forecast

Advertisements
Track Severe Weather on mobile